Time;durP1;ratioP1;P1;durP2;ratioP2;P2;SDS_P1;SDS_P2;PMS_P1;PMS_P2;Temp;Humidity;BMP_temperature;BMP_pressure;BME280_temperature;BME280_humidity;BME280_pressure;Samples;Min_cycle;Max_cycle;Signal;HPM_P1;HPM_P2
2023/01/30 00:01:42;;;;;;;39.60;22.23;;;-1.10;99.90;;;;;;5073901;28;20103;-53
2023/01/30 00:04:07;;;;;;;35.58;22.25;;;-1.00;99.90;;;;;;5073124;28;20040;-59
2023/01/30 00:06:33;;;;;;;57.75;28.48;;;-1.00;99.90;;;;;;5073256;28;20464;-57
2023/01/30 00:08:59;;;;;;;36.78;20.75;;;-1.10;99.90;;;;;;5073081;28;20040;-57
2023/01/30 00:11:27;;;;;;;46.55;23.55;;;-1.10;99.90;;;;;;5073071;28;20040;-60
2023/01/30 00:13:53;;;;;;;38.67;23.13;;;-1.10;99.90;;;;;;5058267;28;20032;-54
2023/01/30 00:16:18;;;;;;;44.33;24.02;;;-1.10;99.90;;;;;;5073301;28;20020;-56
2023/01/30 00:18:44;;;;;;;41.72;24.85;;;-1.20;99.90;;;;;;5073091;28;20024;-58
2023/01/30 00:21:12;;;;;;;39.05;20.15;;;-1.20;99.90;;;;;;5073156;28;20383;-60
2023/01/30 00:23:38;;;;;;;36.92;21.17;;;-1.20;99.90;;;;;;5072983;28;20025;-60
2023/01/30 00:26:06;;;;;;;36.53;22.25;;;-1.20;99.90;;;;;;5073206;28;20033;-60
2023/01/30 00:28:32;;;;;;;39.78;22.98;;;-1.20;99.90;;;;;;5072912;28;20105;-59
2023/01/30 00:30:57;;;;;;;36.33;23.73;;;-1.20;99.90;;;;;;5073079;28;20052;-54
2023/01/30 00:33:25;;;;;;;37.35;21.35;;;-1.20;99.90;;;;;;5071696;28;20111;-57
2023/01/30 00:35:52;;;;;;;39.72;22.67;;;-1.20;99.90;;;;;;5072932;28;20036;-53
2023/01/30 00:38:19;;;;;;;41.25;21.50;;;-1.30;99.90;;;;;;5072998;28;20054;-56
2023/01/30 00:40:46;;;;;;;39.60;22.50;;;-1.30;99.90;;;;;;5072286;28;20099;-60
2023/01/30 00:48:43;;;;;;;35.92;22.95;;;-1.40;99.90;;;;;;5072604;28;20032;-55
2023/01/30 00:51:09;;;;;;;34.05;21.70;;;-1.40;99.90;;;;;;5072367;28;20028;-54
2023/01/30 00:53:35;;;;;;;35.30;20.40;;;-1.50;99.90;;;;;;5072700;28;20048;-61
2023/01/30 00:56:01;;;;;;;37.35;21.45;;;-1.50;99.90;;;;;;5072714;28;20039;-60
2023/01/30 00:58:26;;;;;;;38.42;21.30;;;-1.50;99.90;;;;;;5072545;28;20119;-54
2023/01/30 01:00:52;;;;;;;38.38;22.35;;;-1.50;99.90;;;;;;5070720;28;20119;-56
2023/01/30 01:03:19;;;;;;;37.63;22.48;;;-1.50;99.90;;;;;;5070927;28;20047;-57
2023/01/30 01:05:45;;;;;;;35.85;21.35;;;-1.50;99.90;;;;;;5072268;28;20152;-57
2023/01/30 01:08:11;;;;;;;37.35;21.75;;;-1.50;99.90;;;;;;5072312;28;20111;-55
2023/01/30 01:10:37;;;;;;;37.10;22.13;;;-1.50;99.90;;;;;;5072126;28;20124;-57
2023/01/30 01:13:02;;;;;;;39.72;22.88;;;-1.50;99.90;;;;;;5071984;28;20464;-54
2023/01/30 01:15:29;;;;;;;43.53;22.08;;;-1.50;99.90;;;;;;5072110;28;20121;-59
2023/01/30 01:17:55;;;;;;;35.95;21.27;;;-1.40;99.90;;;;;;5071677;28;20013;-60
2023/01/30 01:20:21;;;;;;;30.40;20.50;;;-1.40;99.90;;;;;;5072071;28;20443;-56
2023/01/30 01:22:51;;;;;;;38.13;22.52;;;-1.50;99.90;;;;;;5071659;28;20467;-56
2023/01/30 01:25:18;;;;;;;35.83;21.35;;;-1.40;99.90;;;;;;5072284;28;20028;-54
2023/01/30 01:27:44;;;;;;;39.03;22.10;;;-1.40;99.90;;;;;;5072083;28;20028;-60
2023/01/30 01:30:10;;;;;;;39.20;22.50;;;-1.40;99.90;;;;;;5071930;28;20028;-54
2023/01/30 01:32:36;;;;;;;40.17;20.88;;;-1.40;99.90;;;;;;5071937;28;20083;-57
2023/01/30 01:35:01;;;;;;;39.08;23.13;;;-1.40;99.90;;;;;;5071630;28;20047;-59
2023/01/30 01:37:27;;;;;;;35.25;21.35;;;-1.50;99.90;;;;;;5071895;28;20093;-57
2023/01/30 01:42:38;;;;;;;37.95;20.70;;;-1.40;99.90;;;;;;5071932;28;20386;-57
2023/01/30 01:45:12;;;;;;;35.42;23.05;;;-1.40;99.90;;;;;;5071505;28;20472;-57
2023/01/30 01:48:03;;;;;;;35.75;21.90;;;-1.40;99.90;;;;;;5071808;28;20062;-57
2023/01/30 01:50:40;;;;;;;43.90;23.35;;;-1.40;99.90;;;;;;5070030;28;20112;-52
2023/01/30 01:53:07;;;;;;;39.83;23.10;;;-1.50;99.90;;;;;;5069962;28;20040;-57
2023/01/30 01:55:33;;;;;;;36.72;23.50;;;-1.60;99.90;;;;;;5071663;28;20078;-53
2023/01/30 01:58:10;;;;;;;36.15;22.27;;;-1.60;99.90;;;;;;5071244;28;20029;-57
2023/01/30 02:00:35;;;;;;;38.63;22.88;;;-1.60;99.90;;;;;;5070430;28;20025;-57
2023/01/30 02:03:06;;;;;;;37.53;21.63;;;-1.70;99.90;;;;;;5071043;28;20721;-57
2023/01/30 02:05:34;;;;;;;39.67;24.30;;;-1.80;99.90;;;;;;5070312;28;20053;-56
2023/01/30 02:08:07;;;;;;;42.58;24.58;;;-1.80;99.90;;;;;;5071333;28;20475;-54
2023/01/30 02:10:40;;;;;;;37.78;22.83;;;-1.80;99.90;;;;;;5070991;28;20373;-58
2023/01/30 02:13:06;;;;;;;43.30;24.30;;;-1.80;99.90;;;;;;5071009;28;20037;-58
2023/01/30 02:15:32;;;;;;;36.08;25.65;;;-1.80;99.90;;;;;;5071195;28;20040;-55
2023/01/30 02:17:58;;;;;;;39.72;23.73;;;-1.90;99.90;;;;;;5071290;28;20074;-54
2023/01/30 02:20:55;;;;;;;39.38;22.17;;;-1.90;99.90;;;;;;5071807;28;20472;-57
2023/01/30 02:23:24;;;;;;;43.33;23.27;;;-1.90;99.90;;;;;;5070725;28;20082;-56
2023/01/30 02:25:58;;;;;;;39.35;24.90;;;-1.90;99.90;;;;;;5061969;28;20021;-56
2023/01/30 02:28:51;;;;;;;39.67;23.52;;;-1.90;99.90;;;;;;5071568;28;20028;-58
2023/01/30 02:31:31;;;;;;;45.63;24.92;;;-2.00;99.90;;;;;;5071387;28;20032;-56
2023/01/30 02:33:56;;;;;;;41.90;24.63;;;-2.00;99.90;;;;;;5069517;28;20040;-54
2023/01/30 02:36:29;;;;;;;43.97;26.08;;;-2.00;99.90;;;;;;5070916;28;20032;-56
2023/01/30 02:39:27;;;;;;;51.03;27.33;;;-2.00;99.90;;;;;;5071135;28;20024;-55
2023/01/30 02:42:17;;;;;;;43.15;23.80;;;-2.10;99.90;;;;;;5052304;28;20040;-53
2023/01/30 02:44:52;;;;;;;38.80;24.88;;;-2.10;99.90;;;;;;5071077;28;20021;-60
2023/01/30 02:47:28;;;;;;;49.28;26.95;;;-2.10;99.90;;;;;;5070675;28;20093;-55
2023/01/30 02:50:03;;;;;;;49.15;26.92;;;-2.20;99.90;;;;;;5069549;28;20052;-54
2023/01/30 02:52:29;;;;;;;43.50;26.17;;;-2.10;99.90;;;;;;5070939;28;20082;-58
2023/01/30 02:54:55;;;;;;;44.72;26.10;;;-2.20;99.90;;;;;;5070805;28;20024;-58
2023/01/30 02:57:23;;;;;;;46.22;25.45;;;-2.30;99.90;;;;;;5070634;28;20456;-58
2023/01/30 02:59:55;;;;;;;44.63;27.20;;;-2.30;99.90;;;;;;5070690;28;20451;-56
2023/01/30 03:02:29;;;;;;;48.75;28.50;;;-2.30;99.90;;;;;;5070077;28;20044;-59
2023/01/30 03:05:16;;;;;;;49.38;27.02;;;-2.40;99.90;;;;;;5074459;28;20036;-58
2023/01/30 03:07:42;;;;;;;46.33;26.77;;;-2.40;99.90;;;;;;5061970;28;20082;-56
2023/01/30 03:10:10;;;;;;;45.00;25.85;;;-2.40;99.90;;;;;;5074157;28;20592;-55
2023/01/30 03:12:47;;;;;;;46.60;25.95;;;-2.30;99.90;;;;;;5073129;28;20043;-58
2023/01/30 03:15:29;;;;;;;51.25;26.80;;;-2.40;99.90;;;;;;5073909;28;20527;-57
2023/01/30 03:17:55;;;;;;;40.70;24.73;;;-2.40;99.90;;;;;;5074247;28;20098;-57
2023/01/30 03:20:21;;;;;;;46.60;27.02;;;-2.40;99.90;;;;;;5074706;28;20017;-57
2023/01/30 03:22:47;;;;;;;49.50;27.33;;;-2.40;99.90;;;;;;5074158;28;20047;-58
2023/01/30 03:25:18;;;;;;;45.28;25.63;;;-2.50;99.90;;;;;;5073848;28;20043;-57
2023/01/30 03:27:44;;;;;;;43.88;24.67;;;-2.50;99.90;;;;;;5073938;28;20091;-56
2023/01/30 03:30:10;;;;;;;49.25;25.13;;;-2.50;99.90;;;;;;5074229;28;20035;-56
2023/01/30 03:32:36;;;;;;;46.15;26.27;;;-2.50;99.90;;;;;;5074098;28;20020;-54
2023/01/30 03:35:02;;;;;;;44.28;26.30;;;-2.50;99.90;;;;;;5074067;28;20513;-56
2023/01/30 03:37:27;;;;;;;50.63;27.80;;;-2.60;99.90;;;;;;5073968;28;20055;-58
2023/01/30 03:39:53;;;;;;;43.15;25.40;;;-2.50;99.90;;;;;;5073675;28;20025;-57
2023/01/30 03:42:19;;;;;;;45.72;26.13;;;-2.50;99.90;;;;;;5073723;28;20051;-55
2023/01/30 03:44:44;;;;;;;45.80;26.98;;;-2.50;99.90;;;;;;5073783;28;20379;-57
2023/01/30 03:47:10;;;;;;;48.20;28.15;;;-2.40;99.90;;;;;;5073528;28;20029;-57
2023/01/30 03:49:36;;;;;;;46.78;26.00;;;-2.50;99.90;;;;;;5073782;28;20017;-57
2023/01/30 03:52:01;;;;;;;48.35;26.63;;;-2.50;99.90;;;;;;5073517;28;20716;-56
2023/01/30 03:54:27;;;;;;;46.42;25.77;;;-2.50;99.90;;;;;;5072214;28;20356;-56
2023/01/30 03:56:53;;;;;;;44.88;25.95;;;-2.50;99.90;;;;;;5073713;28;20027;-55
2023/01/30 03:59:18;;;;;;;44.70;25.17;;;-2.50;99.90;;;;;;5073385;28;20178;-59
2023/01/30 04:01:44;;;;;;;42.08;22.67;;;-2.50;99.90;;;;;;5073332;28;20110;-58
2023/01/30 04:04:10;;;;;;;44.00;25.92;;;-2.50;99.90;;;;;;5073023;28;20058;-59
2023/01/30 04:06:35;;;;;;;44.38;24.98;;;-2.50;99.90;;;;;;5071661;28;20044;-59
2023/01/30 04:09:01;;;;;;;39.47;24.08;;;-2.50;99.90;;;;;;5072734;28;20033;-56
2023/01/30 04:11:27;;;;;;;47.05;25.52;;;-2.50;99.90;;;;;;5072986;28;20048;-59
2023/01/30 04:13:52;;;;;;;50.75;26.48;;;-2.40;99.90;;;;;;5072739;28;20460;-57
2023/01/30 04:16:23;;;;;;;42.65;24.95;;;-2.40;99.90;;;;;;5073270;28;20028;-55
2023/01/30 04:18:49;;;;;;;44.53;24.25;;;-2.50;99.90;;;;;;5073323;28;20373;-57
2023/01/30 04:21:15;;;;;;;47.45;26.67;;;-2.40;99.90;;;;;;5073318;28;20090;-54
2023/01/30 04:23:41;;;;;;;38.83;23.77;;;-2.50;99.90;;;;;;5072542;28;20032;-60
2023/01/30 04:26:08;;;;;;;40.25;24.40;;;-2.50;99.90;;;;;;5072729;28;20454;-59
2023/01/30 04:28:34;;;;;;;46.63;24.95;;;-2.50;99.90;;;;;;5072900;28;20388;-59
2023/01/30 04:30:59;;;;;;;42.92;24.33;;;-2.50;99.90;;;;;;5072992;28;20040;-55
2023/01/30 04:33:25;;;;;;;37.17;23.77;;;-2.50;99.90;;;;;;5072616;28;20626;-59
2023/01/30 04:35:55;;;;;;;40.67;23.17;;;-2.50;99.90;;;;;;5071796;28;20036;-56
2023/01/30 04:38:22;;;;;;;39.55;23.75;;;-2.50;99.90;;;;;;5072751;28;20078;-59
2023/01/30 04:40:52;;;;;;;39.17;23.33;;;-2.50;99.90;;;;;;5072897;28;20025;-56
2023/01/30 04:43:20;;;;;;;38.75;22.92;;;-2.50;99.90;;;;;;5072536;28;20032;-52
2023/01/30 04:45:47;;;;;;;36.53;22.70;;;-2.60;99.90;;;;;;5072143;28;20043;-58
2023/01/30 04:48:14;;;;;;;43.28;23.27;;;-2.60;99.90;;;;;;5072383;28;20078;-51
2023/01/30 04:50:41;;;;;;;46.63;26.13;;;-2.60;99.90;;;;;;5072629;28;20016;-52
2023/01/30 04:53:08;;;;;;;37.65;23.02;;;-2.60;99.90;;;;;;5072288;28;20064;-55
2023/01/30 04:55:34;;;;;;;40.22;23.98;;;-2.60;99.90;;;;;;5072197;28;20028;-56
2023/01/30 04:57:59;;;;;;;35.30;21.98;;;-2.60;99.90;;;;;;5069830;28;20031;-52
2023/01/30 05:00:25;;;;;;;39.05;22.00;;;-2.50;99.90;;;;;;5071432;28;20399;-49
2023/01/30 05:02:52;;;;;;;38.35;22.83;;;-2.40;99.90;;;;;;5070046;28;20115;-57
2023/01/30 05:05:18;;;;;;;37.60;21.60;;;-2.40;99.90;;;;;;5070580;28;20024;-53
2023/01/30 05:07:43;;;;;;;36.60;21.27;;;-2.30;99.90;;;;;;5071739;28;20451;-52
2023/01/30 05:10:09;;;;;;;41.10;22.67;;;-2.30;99.90;;;;;;5072110;28;20040;-53
2023/01/30 05:12:35;;;;;;;35.00;22.58;;;-2.30;99.90;;;;;;5071862;28;20056;-51
2023/01/30 05:15:01;;;;;;;40.60;19.20;;;-2.30;99.90;;;;;;5070362;28;20304;-52
2023/01/30 05:17:26;;;;;;;34.78;19.92;;;-2.20;99.90;;;;;;5069705;28;20103;-52
2023/01/30 05:19:52;;;;;;;32.67;18.88;;;-2.20;99.90;;;;;;5069525;28;20170;-50
2023/01/30 05:22:18;;;;;;;30.42;19.95;;;-2.20;99.90;;;;;;5069927;28;20024;-51
2023/01/30 05:24:43;;;;;;;35.28;20.30;;;-2.20;99.90;;;;;;5070485;28;20028;-51
2023/01/30 05:27:09;;;;;;;33.50;20.70;;;-2.10;99.90;;;;;;5069719;28;20055;-51
2023/01/30 05:29:35;;;;;;;29.75;17.58;;;-2.10;99.90;;;;;;5070725;28;20028;-52
2023/01/30 05:32:00;;;;;;;29.05;18.75;;;-2.10;99.90;;;;;;5071269;28;20031;-53
2023/01/30 05:34:26;;;;;;;26.58;17.02;;;-2.00;99.90;;;;;;5071526;28;20466;-53
2023/01/30 05:36:51;;;;;;;27.05;15.90;;;-2.00;99.90;;;;;;5071521;28;20027;-52
2023/01/30 05:39:17;;;;;;;31.27;16.05;;;-1.90;99.90;;;;;;5071403;28;20052;-53
2023/01/30 05:41:43;;;;;;;27.55;17.80;;;-1.90;99.90;;;;;;5071383;28;20082;-51
2023/01/30 05:44:08;;;;;;;24.95;14.80;;;-1.90;99.90;;;;;;5071613;28;20025;-56
2023/01/30 05:46:34;;;;;;;24.40;15.07;;;-1.80;99.90;;;;;;5071439;28;20086;-53
2023/01/30 05:49:00;;;;;;;29.88;17.00;;;-1.70;99.90;;;;;;5071469;28;20402;-54
2023/01/30 05:51:26;;;;;;;25.75;15.40;;;-1.70;99.90;;;;;;5069599;28;20116;-54
2023/01/30 05:53:52;;;;;;;23.58;15.82;;;-1.70;99.90;;;;;;5071412;28;20086;-49
2023/01/30 05:56:18;;;;;;;21.25;14.93;;;-1.70;99.90;;;;;;5071654;28;20430;-52
2023/01/30 05:58:50;;;;;;;20.15;13.23;;;-1.70;99.90;;;;;;5071447;28;20108;-52
2023/01/30 06:01:16;;;;;;;17.92;12.68;;;-1.70;99.90;;;;;;5071604;28;20422;-56
2023/01/30 06:03:42;;;;;;;21.17;13.57;;;-1.70;99.90;;;;;;5070994;28;20025;-54
2023/01/30 06:06:09;;;;;;;22.08;13.02;;;-1.80;99.90;;;;;;5071055;28;20024;-54
2023/01/30 06:08:34;;;;;;;21.67;14.05;;;-1.90;99.90;;;;;;5071402;28;20043;-55
2023/01/30 06:11:02;;;;;;;19.83;11.85;;;-1.90;99.90;;;;;;5071007;28;20663;-56
2023/01/30 06:13:28;;;;;;;22.83;14.35;;;-1.90;99.90;;;;;;5071341;28;21005;-54
2023/01/30 06:15:53;;;;;;;18.90;12.63;;;-2.00;99.90;;;;;;5070928;28;20058;-56
2023/01/30 06:18:19;;;;;;;23.67;14.40;;;-2.00;99.90;;;;;;5071179;28;20021;-53
2023/01/30 06:20:49;;;;;;;17.58;12.48;;;-2.00;99.90;;;;;;5071041;28;20083;-54
2023/01/30 06:23:16;;;;;;;18.05;12.65;;;-2.10;99.90;;;;;;5070909;28;20021;-56
2023/01/30 06:25:49;;;;;;;22.15;12.65;;;-2.10;99.90;;;;;;5071261;28;20605;-55
2023/01/30 06:28:16;;;;;;;19.08;12.77;;;-2.10;99.90;;;;;;5071136;28;20035;-49
2023/01/30 06:30:42;;;;;;;17.25;12.70;;;-2.10;99.90;;;;;;5071324;28;20110;-54
2023/01/30 06:33:08;;;;;;;19.75;12.25;;;-2.10;99.90;;;;;;5070704;28;20074;-52
2023/01/30 06:35:35;;;;;;;15.60;12.02;;;-2.10;99.90;;;;;;5070967;28;20514;-53
2023/01/30 06:38:01;;;;;;;16.38;11.98;;;-2.10;99.90;;;;;;5073361;28;20162;-55
2023/01/30 06:40:27;;;;;;;23.33;13.05;;;-2.10;99.90;;;;;;5075044;28;20099;-54
2023/01/30 06:42:52;;;;;;;21.67;12.55;;;-2.10;99.90;;;;;;5074953;28;20021;-54
2023/01/30 06:45:18;;;;;;;17.13;12.25;;;-2.10;99.90;;;;;;5074634;28;20025;-57
2023/01/30 06:47:51;;;;;;;19.15;12.52;;;-2.20;99.90;;;;;;5073947;28;20033;-51
2023/01/30 06:50:19;;;;;;;15.98;11.02;;;-2.10;99.90;;;;;;5073113;28;20029;-52
2023/01/30 06:52:49;;;;;;;23.90;11.82;;;-2.10;99.90;;;;;;5074051;28;20391;-55
2023/01/30 06:55:17;;;;;;;17.75;11.60;;;-2.10;99.90;;;;;;5074107;28;20025;-54
2023/01/30 06:57:44;;;;;;;23.88;12.05;;;-2.10;99.90;;;;;;5073942;28;20020;-51
2023/01/30 07:00:19;;;;;;;19.58;13.18;;;-2.20;99.90;;;;;;5073845;28;20104;-52
2023/01/30 07:02:46;;;;;;;18.17;12.30;;;-2.10;99.90;;;;;;5073468;28;20036;-55
2023/01/30 07:05:12;;;;;;;15.65;11.38;;;-2.10;99.90;;;;;;5073502;28;20547;-56
2023/01/30 07:07:38;;;;;;;24.15;13.30;;;-2.10;99.90;;;;;;5073494;28;20103;-55
2023/01/30 07:10:05;;;;;;;25.85;15.00;;;-2.00;99.90;;;;;;5073422;28;20357;-53
2023/01/30 07:12:31;;;;;;;23.85;13.52;;;-2.00;99.90;;;;;;5074108;28;20127;-54
2023/01/30 07:14:57;;;;;;;23.67;12.00;;;-1.90;99.90;;;;;;5074277;28;20115;-56
2023/01/30 07:17:22;;;;;;;246.57;139.40;;;-1.70;99.90;;;;;;5073755;28;20024;-53
2023/01/30 07:19:48;;;;;;;21.40;12.18;;;-1.60;99.90;;;;;;5073154;28;20041;-53
2023/01/30 07:22:14;;;;;;;29.95;20.40;;;-1.40;99.90;;;;;;5073419;28;20016;-53
2023/01/30 07:24:41;;;;;;;19.10;11.93;;;-1.30;99.90;;;;;;5073382;28;20063;-54
2023/01/30 07:27:08;;;;;;;20.08;14.82;;;-1.10;99.90;;;;;;5073157;28;20475;-51
2023/01/30 07:29:35;;;;;;;17.45;10.60;;;-1.00;99.90;;;;;;5074044;28;20115;-52
2023/01/30 07:32:02;;;;;;;17.17;11.45;;;-0.90;99.90;;;;;;5073884;28;20063;-50
2023/01/30 07:34:28;;;;;;;14.68;11.13;;;-0.80;99.90;;;;;;5073782;28;20039;-51
2023/01/30 07:36:53;;;;;;;13.30;9.90;;;-0.80;99.90;;;;;;5073973;28;20422;-51
2023/01/30 07:39:19;;;;;;;17.88;9.88;;;-0.80;99.90;;;;;;5073737;28;20039;-53
2023/01/30 07:41:44;;;;;;;17.20;10.68;;;-0.80;99.90;;;;;;5073881;28;20103;-54
2023/01/30 07:44:11;;;;;;;14.82;10.80;;;-0.90;99.90;;;;;;5073556;28;20082;-51
2023/01/30 07:46:37;;;;;;;16.65;10.07;;;-0.80;99.90;;;;;;5072079;28;20086;-54
2023/01/30 07:49:04;;;;;;;12.90;9.50;;;-0.70;99.90;;;;;;5071810;28;20456;-54
2023/01/30 07:51:30;;;;;;;16.38;10.75;;;-0.60;99.90;;;;;;5073711;28;20070;-54
2023/01/30 07:53:56;;;;;;;13.93;9.77;;;-0.60;99.90;;;;;;5073659;28;20025;-53
2023/01/30 07:56:22;;;;;;;13.07;8.73;;;-0.50;99.90;;;;;;5073457;28;20086;-55
2023/01/30 07:58:53;;;;;;;15.57;9.45;;;-0.40;99.90;;;;;;5073624;28;20029;-52
2023/01/30 08:01:18;;;;;;;15.02;9.98;;;-0.50;99.90;;;;;;5073656;28;20535;-50
2023/01/30 08:03:45;;;;;;;16.88;9.02;;;-0.60;99.90;;;;;;5073251;28;20028;-50
2023/01/30 08:06:12;;;;;;;16.50;8.38;;;-0.50;99.90;;;;;;5073344;28;20083;-54
2023/01/30 08:08:38;;;;;;;12.23;8.82;;;-0.40;99.90;;;;;;5073041;28;20020;-58
2023/01/30 08:11:05;;;;;;;13.95;8.52;;;-0.20;99.90;;;;;;5073100;28;20186;-54
2023/01/30 08:13:31;;;;;;;14.02;8.48;;;-0.10;99.90;;;;;;5073019;28;20127;-56
2023/01/30 08:16:01;;;;;;;12.60;9.07;;;-0.10;99.90;;;;;;5073056;28;20039;-56
2023/01/30 08:18:30;;;;;;;22.50;9.65;;;-0.20;99.90;;;;;;5073113;28;20029;-56
2023/01/30 08:20:57;;;;;;;12.80;7.82;;;-0.10;99.90;;;;;;5072875;28;20029;-56
2023/01/30 08:23:23;;;;;;;14.00;9.02;;;-0.10;99.90;;;;;;5072923;28;20018;-55
2023/01/30 08:25:49;;;;;;;10.82;7.32;;;-0.20;99.90;;;;;;5072908;28;20025;-56
2023/01/30 08:28:14;;;;;;;14.65;8.48;;;-0.10;99.90;;;;;;5073587;28;20089;-54
2023/01/30 08:30:41;;;;;;;11.50;8.00;;;0.00;99.90;;;;;;5072983;28;20459;-52
2023/01/30 08:33:07;;;;;;;10.77;8.43;;;0.00;99.90;;;;;;5072561;28;20551;-54
2023/01/30 08:35:32;;;;;;;15.02;8.60;;;0.20;99.90;;;;;;5071873;28;20024;-51
2023/01/30 08:37:58;;;;;;;12.30;8.68;;;0.20;99.90;;;;;;5072135;28;20146;-55
2023/01/30 08:40:24;;;;;;;13.32;8.48;;;0.40;99.90;;;;;;5072435;28;20110;-52
2023/01/30 08:42:49;;;;;;;17.65;8.77;;;0.60;99.90;;;;;;5072363;28;20028;-52
2023/01/30 08:45:15;;;;;;;20.73;7.90;;;0.60;99.90;;;;;;5072337;28;20031;-52
2023/01/30 08:47:41;;;;;;;14.20;7.65;;;0.50;99.90;;;;;;5072557;28;20027;-51
2023/01/30 08:50:07;;;;;;;12.15;7.97;;;0.80;99.90;;;;;;5072348;28;20035;-55
2023/01/30 08:52:33;;;;;;;11.18;8.38;;;0.90;99.90;;;;;;5071858;28;20048;-55
2023/01/30 08:54:59;;;;;;;13.65;7.32;;;1.00;99.90;;;;;;5071630;28;20113;-57
2023/01/30 08:57:24;;;;;;;14.27;7.25;;;1.20;99.90;;;;;;5071924;28;20039;-52
2023/01/30 08:59:50;;;;;;;11.93;8.07;;;1.30;99.60;;;;;;5072145;28;20029;-54
2023/01/30 09:02:16;;;;;;;9.73;6.65;;;1.40;99.50;;;;;;5071734;28;20017;-56
2023/01/30 09:04:42;;;;;;;14.27;7.78;;;1.40;98.70;;;;;;5072052;28;20024;-53
2023/01/30 09:07:07;;;;;;;9.93;7.20;;;1.60;98.40;;;;;;5072141;28;20063;-52
2023/01/30 09:09:33;;;;;;;23.45;9.43;;;1.70;97.80;;;;;;5072255;28;20024;-52
2023/01/30 09:11:59;;;;;;;8.57;6.88;;;1.60;97.30;;;;;;5071460;28;20041;-53
2023/01/30 09:14:24;;;;;;;19.52;9.10;;;1.80;97.50;;;;;;5071961;28;20039;-51
2023/01/30 09:16:54;;;;;;;11.40;8.05;;;1.80;96.50;;;;;;5071941;28;20021;-54
2023/01/30 09:19:24;;;;;;;9.43;6.75;;;2.10;95.70;;;;;;5070960;28;20028;-49
2023/01/30 09:21:51;;;;;;;21.92;8.57;;;2.30;96.70;;;;;;5071818;28;20107;-52
2023/01/30 09:24:18;;;;;;;8.73;7.18;;;2.30;95.60;;;;;;5071775;28;20374;-55
2023/01/30 09:26:44;;;;;;;8.77;6.85;;;2.30;95.80;;;;;;5071494;28;20028;-51
2023/01/30 09:29:13;;;;;;;9.18;6.32;;;2.40;95.60;;;;;;5072086;28;20040;-50
2023/01/30 09:31:40;;;;;;;8.70;6.55;;;2.20;95.90;;;;;;5072025;28;20028;-54
2023/01/30 09:34:06;;;;;;;13.27;6.40;;;2.30;95.10;;;;;;5072241;28;20104;-51
2023/01/30 09:36:32;;;;;;;10.43;6.75;;;2.40;94.40;;;;;;5071762;28;20372;-54
2023/01/30 09:38:58;;;;;;;17.33;5.95;;;2.30;94.50;;;;;;5071393;28;20025;-52
2023/01/30 09:41:47;;;;;;;7.75;6.45;;;2.60;94.20;;;;;;5071718;28;20016;-53
2023/01/30 09:44:21;;;;;;;9.02;5.35;;;2.50;94.30;;;;;;5071810;28;20031;-53
2023/01/30 09:47:01;;;;;;;11.93;5.80;;;2.40;94.70;;;;;;5071238;28;20020;-54
2023/01/30 09:49:38;;;;;;;8.52;5.97;;;2.30;95.10;;;;;;5071693;28;20040;-57
2023/01/30 09:52:15;;;;;;;7.72;5.93;;;2.20;95.30;;;;;;5071319;28;20124;-52
2023/01/30 09:54:43;;;;;;;7.35;5.97;;;2.40;95.20;;;;;;5071522;28;20025;-53
2023/01/30 09:57:15;;;;;;;11.57;6.10;;;2.60;94.00;;;;;;5071159;28;20447;-54
2023/01/30 09:59:47;;;;;;;6.55;5.38;;;2.50;93.70;;;;;;5071684;28;20108;-49
2023/01/30 10:02:38;;;;;;;10.68;5.55;;;2.70;93.40;;;;;;5071711;28;20491;-57
2023/01/30 10:05:04;;;;;;;8.60;6.22;;;2.50;93.30;;;;;;5071338;28;20012;-49
2023/01/30 10:07:30;;;;;;;10.52;6.15;;;2.80;94.30;;;;;;5071263;28;20028;-50
2023/01/30 10:09:58;;;;;;;13.45;7.82;;;2.80;93.50;;;;;;5071340;28;20035;-56
2023/01/30 10:12:38;;;;;;;10.57;7.25;;;2.80;93.60;;;;;;5070863;28;20036;-51
2023/01/30 10:15:33;;;;;;;8.85;6.28;;;2.70;93.60;;;;;;5071327;28;20032;-54
2023/01/30 10:17:58;;;;;;;17.05;10.85;;;2.90;94.60;;;;;;5071326;28;20059;-54
2023/01/30 10:20:39;;;;;;;18.23;9.13;;;2.70;94.20;;;;;;5071341;28;20048;-54
2023/01/30 10:23:48;;;;;;;26.90;10.77;;;2.70;94.60;;;;;;5071279;28;20199;-54
2023/01/30 10:26:18;;;;;;;13.80;7.43;;;2.90;94.30;;;;;;5073093;28;20028;-54
2023/01/30 10:29:05;;;;;;;13.20;8.88;;;3.00;94.80;;;;;;5071325;28;20456;-57
2023/01/30 10:31:41;;;;;;;13.60;7.20;;;2.90;93.80;;;;;;5069627;28;20635;-52
2023/01/30 10:34:15;;;;;;;9.15;6.53;;;4.00;92.70;;;;;;5070828;28;20112;-53
2023/01/30 10:36:59;;;;;;;11.70;7.60;;;5.50;90.80;;;;;;5069946;28;20032;-54
2023/01/30 10:39:41;;;;;;;8.60;5.95;;;5.30;90.10;;;;;;5070928;28;20039;-55
2023/01/30 10:42:12;;;;;;;9.77;5.50;;;5.50;88.70;;;;;;5071120;28;20031;-51
2023/01/30 10:44:41;;;;;;;7.25;5.20;;;5.30;88.20;;;;;;5071158;28;20494;-53
2023/01/30 10:47:16;;;;;;;13.88;6.15;;;5.10;88.70;;;;;;5071035;28;20028;-50
2023/01/30 10:49:50;;;;;;;7.07;5.30;;;4.40;89.10;;;;;;5071071;28;20059;-55
2023/01/30 10:52:53;;;;;;;11.98;7.72;;;4.70;90.00;;;;;;5071159;28;20487;-54
2023/01/30 10:55:28;;;;;;;7.83;5.70;;;4.50;90.60;;;;;;5070986;28;20052;-54
2023/01/30 10:57:56;;;;;;;6.15;4.90;;;4.30;90.30;;;;;;5071164;28;20032;-53
2023/01/30 11:00:34;;;;;;;11.57;7.05;;;4.10;90.50;;;;;;5071201;28;20367;-52
2023/01/30 11:03:19;;;;;;;27.75;10.80;;;4.10;91.40;;;;;;5071037;28;20021;-52
2023/01/30 11:05:51;;;;;;;22.30;5.72;;;4.10;90.30;;;;;;5071108;28;20028;-52
2023/01/30 11:08:21;;;;;;;8.18;5.38;;;4.30;90.70;;;;;;5070764;28;20020;-56
2023/01/30 11:10:46;;;;;;;9.93;5.15;;;4.30;90.50;;;;;;5070709;28;20037;-55
2023/01/30 11:13:17;;;;;;;11.73;4.82;;;4.10;90.60;;;;;;5070847;28;20090;-52
2023/01/30 11:15:45;;;;;;;4.40;4.00;;;4.10;90.70;;;;;;5070740;28;20032;-52
2023/01/30 11:18:11;;;;;;;6.07;4.88;;;4.30;91.80;;;;;;5070769;28;20039;-55
2023/01/30 11:20:44;;;;;;;7.90;5.50;;;4.30;91.50;;;;;;5070903;28;20395;-52
2023/01/30 11:23:30;;;;;;;9.43;4.32;;;4.20;90.80;;;;;;5069803;28;20017;-53
2023/01/30 11:25:57;;;;;;;7.32;4.65;;;4.40;91.60;;;;;;5073242;28;20025;-51
2023/01/30 11:28:25;;;;;;;4.95;4.25;;;4.50;91.70;;;;;;5074111;28;20082;-52
2023/01/30 11:30:57;;;;;;;11.07;3.95;;;4.80;91.70;;;;;;5073734;28;20112;-55
2023/01/30 11:33:33;;;;;;;20.60;5.32;;;5.10;90.90;;;;;;5073739;28;20028;-52
2023/01/30 11:36:05;;;;;;;8.25;4.20;;;5.50;90.10;;;;;;5073811;28;20087;-54
2023/01/30 11:38:33;;;;;;;8.02;5.15;;;6.20;88.60;;;;;;5073631;28;20392;-54
2023/01/30 11:41:12;;;;;;;13.60;3.72;;;6.10;87.30;;;;;;5071852;28;20119;-49
2023/01/30 11:43:38;;;;;;;5.82;4.63;;;6.50;87.70;;;;;;5073119;28;20099;-53
2023/01/30 11:46:11;;;;;;;9.57;4.75;;;6.20;88.40;;;;;;5073584;28;20108;-50
2023/01/30 11:48:54;;;;;;;8.18;4.95;;;6.50;88.80;;;;;;5073792;28;20044;-52
2023/01/30 11:51:22;;;;;;;5.75;4.65;;;6.80;86.90;;;;;;5073891;28;20383;-52
2023/01/30 11:54:06;;;;;;;8.82;4.30;;;6.30;86.50;;;;;;5073543;28;20021;-52
2023/01/30 11:56:38;;;;;;;5.75;4.38;;;5.60;87.80;;;;;;5073794;28;20035;-53
2023/01/30 11:59:18;;;;;;;5.53;4.30;;;5.30;90.40;;;;;;5072227;28;20428;-49
2023/01/30 12:01:43;;;;;;;8.10;4.78;;;5.20;91.50;;;;;;5073797;28;20593;-51
2023/01/30 12:04:11;;;;;;;4.80;3.97;;;4.90;93.00;;;;;;5073511;28;20029;-52
2023/01/30 12:06:40;;;;;;;8.25;5.35;;;4.80;93.20;;;;;;5073688;28;20021;-50
2023/01/30 12:09:25;;;;;;;11.02;4.68;;;4.80;93.70;;;;;;5073447;28;20024;-49
2023/01/30 12:11:51;;;;;;;4.78;3.90;;;4.80;94.00;;;;;;5071822;28;20094;-51
2023/01/30 12:14:37;;;;;;;5.10;4.20;;;4.70;94.90;;;;;;5073338;28;20024;-51
2023/01/30 12:17:26;;;;;;;9.20;4.90;;;4.70;95.60;;;;;;5073628;28;20024;-55
2023/01/30 12:20:20;;;;;;;7.82;4.07;;;4.90;95.40;;;;;;5073366;28;20031;-56
2023/01/30 12:23:01;;;;;;;4.47;3.45;;;5.20;94.50;;;;;;5073349;28;20045;-54
2023/01/30 12:25:34;;;;;;;3.35;2.97;;;5.20;94.70;;;;;;5073142;28;20452;-50
2023/01/30 12:28:11;;;;;;;6.45;4.25;;;5.30;95.50;;;;;;5073196;28;20070;-56
2023/01/30 12:31:07;;;;;;;5.03;3.97;;;5.00;95.30;;;;;;5071943;28;20100;-51
2023/01/30 12:33:34;;;;;;;4.10;3.42;;;4.70;95.90;;;;;;5072828;28;20079;-52
2023/01/30 12:36:25;;;;;;;7.10;3.72;;;4.70;96.50;;;;;;5072737;28;20016;-52
2023/01/30 12:39:30;;;;;;;4.45;3.15;;;4.70;96.70;;;;;;5072935;28;20032;-51
2023/01/30 12:42:39;;;;;;;6.18;4.43;;;4.70;97.20;;;;;;5071537;28;20028;-54
2023/01/30 12:45:19;;;;;;;7.03;5.03;;;4.50;98.00;;;;;;5072927;28;20669;-51
2023/01/30 12:47:47;;;;;;;4.47;3.60;;;4.50;97.90;;;;;;5072878;28;20115;-55
2023/01/30 12:50:39;;;;;;;11.38;8.15;;;4.30;98.50;;;;;;5072849;28;20024;-54
2023/01/30 12:53:26;;;;;;;4.18;3.38;;;4.30;98.60;;;;;;5072769;28;20028;-54
2023/01/30 12:56:15;;;;;;;3.60;3.30;;;4.20;98.90;;;;;;5072372;28;20020;-55
2023/01/30 12:58:52;;;;;;;4.20;3.80;;;4.20;99.20;;;;;;5072455;28;20025;-52